Stations météo

réclame
Mon MeteoGroup
K13 Alpha, Pays-Bas (6252): Température de l'air & dewpoint: 19.02.2018 00:00:00 - 25.02.2018 00:00:00 (CET)K13 Alpha, Pays-Bas (6252): water temperature: 19.02.2018 00:00:00 - 25.02.2018 00:00:00 (CET)K13 Alpha, Pays-Bas (6252): Vitesse du vent & gusts: 19.02.2018 00:00:00 - 25.02.2018 00:00:00 (CET)K13 Alpha, Pays-Bas (6252): Direction du vent: 19.02.2018 00:00:00 - 25.02.2018 00:00:00 (CET)K13 Alpha, Pays-Bas (6252): reduced air pressure: 19.02.2018 00:00:00 - 25.02.2018 00:00:00 (CET)
Date & Time tt [°C] td [°C] tw [°C] ff [km/h] ff [knt] fx [km/h] fx [knt] dd ppp [hPa]
25.02.2018 00:00:00 1,5 -6,3 5,9 52 28 54 29 E 1030,5
24.02.2018 23:00:00 2,0 -6,0 5,9 52 28 54 29 ESE 1030,4
24.02.2018 22:00:00 2,4 -4,4 5,8 52 28 54 29 E 1029,8
24.02.2018 21:00:00 2,6 -3,3 5,8 54 29 54 29 E 1029,7
24.02.2018 20:00:00 2,6 -3,4 5,8 54 29 54 29 E 1029,3
24.02.2018 19:00:00 2,8 -2,0 5,7 52 28 - - E 1029,1
24.02.2018 18:00:00 2,5 -2,3 5,6 43 23 50 27 E 1028,7
24.02.2018 17:00:00 2,1 -2,1 5,5 52 28 50 27 E 1028,4
24.02.2018 16:00:00 1,8 -2,1 5,5 48 26 47 25 E 1028,2
24.02.2018 15:00:00 1,7 -2,5 5,5 50 27 54 29 E 1028,3
24.02.2018 14:00:00 1,6 -3,0 5,5 54 29 58 31 E 1028,3
24.02.2018 13:00:00 1,4 -4,0 5,6 54 29 54 29 E 1028,2
24.02.2018 12:00:00 1,6 -4,9 5,7 50 27 54 29 E 1028,1
24.02.2018 11:00:00 1,8 -5,0 5,6 52 28 50 27 E 1027,9
24.02.2018 10:00:00 2,0 -5,0 5,5 52 28 50 27 E 1027,5
24.02.2018 09:00:00 2,2 -4,4 5,4 50 27 54 29 ESE 1027,1
24.02.2018 08:00:00 1,8 -4,9 5,4 50 27 50 27 ESE 1026,3
24.02.2018 07:00:00 1,9 -5,2 5,4 52 28 50 27 ESE 1025,7
24.02.2018 06:00:00 1,8 -5,1 5,5 48 26 50 27 ESE 1025,1
24.02.2018 05:00:00 1,5 -4,2 5,6 50 27 47 25 E 1024,8
24.02.2018 04:00:00 1,4 -4,7 5,7 50 27 50 27 E 1024,6
24.02.2018 03:00:00 1,6 -3,7 5,7 48 26 50 27 E 1024,8
24.02.2018 02:00:00 1,8 -3,6 5,8 48 26 50 27 ESE 1024,8
24.02.2018 01:00:00 1,9 -4,0 5,8 48 26 50 27 ESE 1024,6
24.02.2018 00:00:00 1,8 -3,9 5,8 48 26 54 29 ESE 1024,5
23.02.2018 23:00:00 1,9 -3,5 5,7 52 28 54 29 E 1024,3
23.02.2018 22:00:00 2,2 -2,8 5,7 48 26 50 27 E 1024,2
23.02.2018 21:00:00 2,3 -2,7 5,7 46 25 47 25 E 1024,1
23.02.2018 20:00:00 2,3 -2,9 5,7 36 19 43 23 E 1024,1
23.02.2018 19:00:00 2,3 -2,6 5,7 41 22 43 23 E 1024,1
23.02.2018 18:00:00 2,2 -3,2 5,6 41 22 43 23 E 1024,1
23.02.2018 17:00:00 2,0 -3,0 5,5 41 22 40 21 E 1023,9
23.02.2018 16:00:00 2,0 -4,8 5,6 32 18 40 21 E 1024,0
23.02.2018 15:00:00 2,1 -4,2 5,7 34 18 36 19 E 1024,6
23.02.2018 14:00:00 2,2 -4,0 5,7 32 18 40 21 E 1024,9
23.02.2018 13:00:00 2,3 -4,6 5,8 37 20 40 21 E 1025,3
23.02.2018 12:00:00 2,4 -4,5 5,9 41 22 47 25 E 1025,8
23.02.2018 11:00:00 2,3 -4,6 5,9 41 22 43 23 E 1026,1
23.02.2018 10:00:00 2,0 -4,0 5,9 34 18 36 19 E 1026,3
23.02.2018 09:00:00 2,3 -2,8 5,7 25 14 32 18 E 1025,8
23.02.2018 08:00:00 2,3 -2,0 5,6 26 14 32 18 E 1025,6
23.02.2018 07:00:00 2,5 -2,4 5,5 28 15 36 19 E 1025,3
23.02.2018 06:00:00 2,6 -2,8 5,5 31 17 32 18 E 1025,1
23.02.2018 05:00:00 3,0 -1,9 5,5 29 16 32 18 E 1025,1
23.02.2018 04:00:00 3,2 -1,1 5,5 28 15 29 16 E 1025,2
23.02.2018 03:00:00 3,4 -1,0 5,6 28 15 32 18 ESE 1025,2
23.02.2018 02:00:00 3,7 0,4 5,6 31 17 32 18 ESE 1025,3
23.02.2018 01:00:00 3,0 1,1 5,7 26 14 29 16 ENE 1025,6
23.02.2018 00:00:00 4,3 0,7 5,8 28 15 29 16 ENE 1025,8
22.02.2018 23:00:00 4,3 0,3 5,8 26 14 29 16 ENE 1026,2
22.02.2018 22:00:00 4,1 0,5 5,7 26 14 29 16 ENE 1026,2
22.02.2018 21:00:00 3,9 -0,7 5,7 26 14 32 18 E 1026,3
22.02.2018 20:00:00 3,8 -0,4 5,6 22 12 29 16 E 1026,2
22.02.2018 19:00:00 3,6 -1,4 5,6 26 14 29 16 ENE 1026,1
22.02.2018 18:00:00 3,4 -2,9 5,6 24 13 25 14 ENE 1026,2
22.02.2018 17:00:00 3,3 -3,3 5,6 21 11 22 12 ENE 1026,3
22.02.2018 16:00:00 3,3 -3,7 5,7 18 10 22 12 E 1026,3
22.02.2018 15:00:00 3,2 -3,8 5,7 21 11 22 12 E 1026,7
22.02.2018 14:00:00 3,1 -4,3 5,8 21 11 22 12 E 1027,2
22.02.2018 13:00:00 3,0 -4,4 5,8 22 12 25 14 ESE 1027,6
22.02.2018 12:00:00 3,1 -3,9 5,9 24 13 29 16 E 1027,9
22.02.2018 11:00:00 2,9 -4,2 5,8 28 15 32 18 ESE 1027,6
22.02.2018 10:00:00 3,0 -4,2 5,8 28 15 32 18 E 1027,6
22.02.2018 09:00:00 3,0 -4,1 5,7 31 17 32 18 E 1027,5
22.02.2018 08:00:00 2,7 -4,8 5,6 31 17 32 18 E 1027,3
22.02.2018 07:00:00 2,7 -4,7 5,6 29 16 32 18 E 1027,0
22.02.2018 06:00:00 2,8 -4,2 5,6 29 16 32 18 E 1026,9
22.02.2018 05:00:00 2,8 -3,1 5,6 29 16 29 16 E 1026,9
22.02.2018 04:00:00 2,9 -3,2 5,6 25 14 29 16 E 1027,0
22.02.2018 03:00:00 3,0 -3,0 5,7 28 15 29 16 E 1027,2
22.02.2018 02:00:00 3,2 -3,5 5,7 28 15 29 16 E 1027,2
22.02.2018 01:00:00 3,2 -2,6 5,7 29 16 32 18 E 1027,6
22.02.2018 00:00:00 3,3 -1,8 5,8 29 16 29 16 E 1027,6
21.02.2018 23:00:00 3,5 -1,6 5,8 28 15 29 16 E 1027,8
21.02.2018 22:00:00 3,6 -1,2 5,8 28 15 32 18 E 1027,8
21.02.2018 21:00:00 3,7 -1,2 5,8 24 13 25 14 ENE 1027,6
21.02.2018 20:00:00 4,1 -0,4 5,7 21 11 25 14 ENE 1027,1
21.02.2018 19:00:00 4,1 -0,2 5,7 21 11 22 12 E 1027,0
21.02.2018 18:00:00 4,1 0,8 5,6 15 8 18 10 E 1026,7
21.02.2018 17:00:00 4,1 1,2 5,6 15 8 18 10 E 1026,5
21.02.2018 16:00:00 4,4 0,9 5,7 11 6 14 8 ESE 1026,6
21.02.2018 15:00:00 4,8 -0,1 5,7 4 2 7 4 SE 1026,7
21.02.2018 14:00:00 4,8 -0,5 5,8 8 4 7 4 ESE 1027,4
21.02.2018 13:00:00 4,9 0,5 5,8 5 3 7 4 SSE 1027,6
21.02.2018 12:00:00 5,0 0,7 5,8 4 2 7 4 S 1027,9
21.02.2018 11:00:00 4,9 0,4 5,9 2 1 4 2 SSW 1027,9
21.02.2018 10:00:00 4,8 0,5 5,9 4 2 4 2 S 1027,7
21.02.2018 09:00:00 4,7 0,5 5,8 2 1 4 2 ESE 1027,4
21.02.2018 08:00:00 4,5 0,6 5,7 5 3 7 4 E 1027,2
21.02.2018 07:00:00 4,5 0,8 5,7 9 5 11 6 ESE 1027,0
21.02.2018 06:00:00 4,5 0,7 5,6 5 3 7 4 E 1027,2
21.02.2018 05:00:00 4,6 0,9 5,5 9 5 14 8 ENE 1027,3
21.02.2018 04:00:00 4,7 0,5 5,5 13 7 14 8 NE 1027,3
21.02.2018 03:00:00 4,7 0,5 5,6 18 10 18 10 NE 1027,1
21.02.2018 02:00:00 4,7 1,1 5,7 18 10 18 10 NE 1026,8
21.02.2018 01:00:00 4,7 1,0 5,7 18 10 22 12 ENE 1026,5
21.02.2018 00:00:00 4,7 1,2 5,7 21 11 22 12 ENE 1026,1
20.02.2018 23:00:00 4,6 0,9 5,7 24 13 25 14 ENE 1026,1
20.02.2018 22:00:00 4,7 0,5 5,8 28 15 29 16 ENE 1025,4
20.02.2018 21:00:00 4,4 0,3 5,9 29 16 29 16 ENE 1025,0
20.02.2018 20:00:00 4,3 0,8 5,8 22 12 25 14 ENE 1024,2
20.02.2018 19:00:00 4,3 0,2 5,7 21 11 22 12 ENE 1023,5
20.02.2018 18:00:00 4,3 -0,6 5,7 22 12 22 12 E 1022,3
20.02.2018 17:00:00 4,3 -0,4 5,6 18 10 22 12 ESE 1021,2
20.02.2018 16:00:00 3,4 -0,1 5,6 18 10 22 12 SE 1020,5
20.02.2018 15:00:00 3,5 0,1 5,6 21 11 22 12 SE 1020,5
20.02.2018 14:00:00 3,5 0,2 5,6 18 10 22 12 SSE 1020,2
20.02.2018 13:00:00 3,1 0,1 5,7 21 11 22 12 SSE 1020,1
20.02.2018 12:00:00 4,1 -1,6 5,7 15 8 22 12 SSE 1020,0
20.02.2018 11:00:00 4,9 0,4 5,8 21 11 22 12 SSE 1019,5
20.02.2018 10:00:00 4,8 -0,6 5,9 18 10 22 12 SSE 1019,2
20.02.2018 09:00:00 4,8 -0,1 6,0 16 9 22 12 SSE 1019,3
20.02.2018 08:00:00 4,9 0,6 5,9 18 10 22 12 SSE 1018,9
20.02.2018 07:00:00 4,9 0,3 5,9 16 9 18 10 SE 1018,8
20.02.2018 06:00:00 5,1 1,9 5,8 15 8 18 10 SE 1018,7
20.02.2018 05:00:00 4,9 2,4 5,8 16 9 18 10 SE 1018,6
20.02.2018 04:00:00 5,0 3,0 5,7 21 11 18 10 ESE 1018,8
20.02.2018 03:00:00 4,9 3,7 5,5 13 7 18 10 SE 1018,6
20.02.2018 02:00:00 4,8 3,8 5,5 16 9 18 10 ESE 1018,5
20.02.2018 01:00:00 4,8 3,8 5,5 15 8 18 10 SE 1018,3
20.02.2018 00:00:00 4,7 3,8 5,5 15 8 18 10 SE 1018,3
19.02.2018 23:00:00 4,7 4,0 5,6 15 8 22 12 SE 1017,9
19.02.2018 22:00:00 4,7 4,0 5,7 15 8 18 10 SSE 1017,7
19.02.2018 21:00:00 4,7 4,1 5,9 21 11 22 12 SSE 1017,6
19.02.2018 20:00:00 4,7 4,3 5,9 18 10 22 12 SSE 1017,6
19.02.2018 19:00:00 4,8 4,1 5,9 22 12 25 14 SSE 1017,4
19.02.2018 18:00:00 5,0 4,4 5,9 24 13 25 14 SSE 1016,7
19.02.2018 17:00:00 5,0 4,7 5,8 22 12 29 16 SSE 1016,6
19.02.2018 16:00:00 5,1 4,8 5,8 25 14 29 16 SSE 1016,3
19.02.2018 15:00:00 5,5 5,0 5,5 26 14 25 14 SSE 1016,8
19.02.2018 14:00:00 5,7 5,2 5,5 22 12 25 14 SSE 1016,8
19.02.2018 13:00:00 5,9 5,2 5,5 26 14 25 14 S 1016,8
19.02.2018 12:00:00 6,1 5,3 5,5 26 14 25 14 S 1017,1
19.02.2018 11:00:00 6,2 5,4 5,6 24 13 25 14 S 1017,1
19.02.2018 10:00:00 6,3 5,5 5,7 24 13 22 12 S 1017,3
19.02.2018 09:00:00 6,4 5,6 5,9 22 12 25 14 SSW 1017,7
19.02.2018 08:00:00 6,4 5,5 6,0 24 13 25 14 SSW 1017,6
19.02.2018 07:00:00 6,4 5,5 6,0 22 12 22 12 S 1017,7
19.02.2018 06:00:00 6,4 5,4 5,9 24 13 25 14 SSW 1017,9
19.02.2018 05:00:00 6,4 5,3 5,9 26 14 25 14 SSW 1018,3
19.02.2018 04:00:00 6,4 5,2 5,8 24 13 25 14 SSW 1018,6
19.02.2018 03:00:00 6,4 5,1 5,6 28 15 25 14 SSW 1019,2
19.02.2018 02:00:00 6,5 4,9 5,4 28 15 25 14 SSW 1019,8
19.02.2018 01:00:00 6,4 4,8 5,4 28 15 25 14 SSW 1020,4
19.02.2018 00:00:00 6,4 4,5 5,4 26 14 25 14 SSW 1020,6

tt = Température de l'air
td = dewpoint
tw = water temperature
ff = Vitesse du vent
fx = gusts
dd = Direction du vent
ppp = reduced air pressure

stations d'obs. à proximité